Airfield :
LOGIN :

Register | Disclaimer

   EN    FR    IT 

 










Legend :    VFR   Marginal VFR   IFR   Intensive IFR   Very Intensive IFR
Visi :
Ceiling :
>= 8 km
>= 3000ft
5 to 8 km
1000 to 3000 ft
1500m to 5 km
500 to 1000 ft
800 to 1500m
200 to 500 ft
< 800m
< 200 ft
Symbols :   Thunderstorms  Fog  Heavy snow  Heavy precipitations  Wind > 20 kt
SIGMETs :     Misc.  Thunderstorms  Icing  Turbulence  Mountain Waves  Volcanic Ashes







- Airport Elevation : 26 ft
- IATA code : BIA
- Download approach charts


LFKB - Bastia

CURRENT METAR :
  • 131930Z AUTO 22004KT CAVOK 13/12 Q1027 NOSIG

EXPIRED METARs :
  • 131900Z AUTO 20003KT CAVOK 13/12 Q1028 NOSIG
  • 131830Z AUTO 20004KT 7000 NSC 13/13 Q1027 NOSIG
  • 131800Z AUTO 19003KT 7000 NSC 14/13 Q1027 NOSIG
  • 131730Z AUTO 20004KT 0350 R34///// FG FEW009 14/13 Q1027 BECMG 9999 NSW
  • 131700Z AUTO 21002KT 3500 0100 R34///// BCFG NSC 15/14 Q1027 BECMG 9999 NSW

TAF TAF LFKB
Valid from the 13 at 15:00 until the 14 at 15:00 UTC


131400Z 1315/1415 14008KT 9999 SCT020 BKN260 TX20/1412Z TN11/1403Z
BECMG 1317/1319 22006KT
TEMPO 1404/1415 BKN020
BECMG 1407/1409 10008KT
ATIS : +33 4 95 59 19 40
No reported NOTAMs for that airfield.



MET'MAP, your aeronautical weather chart ! - Copyright ORBIFLY December 2007 - Disclaimer

ORBIFLY MET'MAP TEAM :

Programming & Development : Alexandra Zaïnal
Concept & Development : Baudouin d'Aumeries
Co-Development & Prog : Marc-Olivier Méhu
Technical & hardware support : Manuel Goepfert

Contact : metmap@orbifly.com




SOURCES & CREDITS :

   NOAA